Maun, Maun Airport (FBMN)

NameMaun Airport
CityMaun
CountryBotswana
ICAOFBMN
IATAMUB
Altitude943 m
CoordinatesGoogle Map
Live Air TrafficLiveATC.net
METARFBMN 251700Z 29002KT CAVOK 23/11 Q1016
2020-04-25 17:00:00 Wind: West (290°) 1.03 m/s - Visibility: > 10000 m - Weather: CAVOK - Temperature: 23 °C - Dew point: 11 °C - Humidity: 46.8% - Pressure: 1016 hPa

Sorry, no flights used the airport in this database.